Northern Expedition — CFN5364 — position and weather

sailwx.info

Track history (hours):
 
Tides and Currents Weather Stations Pressure Air Temp Water Temp Dewpoint Dewpoint Depression Visibility Wind Speed Wind Dir Waves Ship Positions

Northern Expedition

Last reported at 2014-Nov-27 09:33 UTC. Time now 2014-Nov-29 08:37 UTC.
Position N 54°18' W 130°21'.

Length 151 m; draft 5 m.

Type: Ship. MMSI: 316014054.

Date/timePositionNaut miles runAvg speedWind from/ knotsBaromVisibWave heightAir tempDewpointWater temp
2014-Nov-27 09:33N 54°18' W 130°21'0 0.0
2014-Nov-27 08:33N 54°18' W 130°21'0 0.0
2014-Nov-27 07:33N 54°18' W 130°21'0 0.0
2014-Nov-27 06:33N 54°18' W 130°21'0 0.0
2014-Nov-27 00:18N 54°18' W 130°21'0 0.0
2014-Nov-26 23:34N 54°18' W 130°21'0 0.0
2014-Nov-26 22:33N 54°18' W 130°21'0 0.0
2014-Nov-26 03:07N 54°18' W 130°21'0 0.0
2014-Nov-26 02:33N 54°18' W 130°21'0 0.0
2014-Nov-26 01:33N 54°18' W 130°21'0 0.2
2014-Nov-26 00:33N 54°18' W 130°21'2 0.0
2014-Nov-24 06:12N 54°16' W 130°22'2 2.8
2014-Nov-24 05:33N 54°18' W 130°21'0 0.0
2014-Nov-24 04:34N 54°18' W 130°21'0 0.0
2014-Nov-24 03:33N 54°18' W 130°21'0 0.0
2014-Nov-24 02:34N 54°18' W 130°21'0 0.0
2014-Nov-24 01:33N 54°18' W 130°21'0 0.0
2014-Nov-24 00:33N 54°18' W 130°21'0 0.0
2014-Nov-23 23:33N 54°18' W 130°21'19010.4
2014-Nov-23 05:15N 51°31' W 127°52'1014.9
2014-Nov-23 04:33N 51°21' W 127°52'1716.9
2014-Nov-23 03:32N 51°04' W 127°47'1716.9
2014-Nov-23 02:34N 50°51' W 127°31'8 7.0
2014-Nov-23 01:27N 50°44' W 127°27'0 0.0
2014-Nov-23 00:33N 50°44' W 127°27'0 0.0
2014-Nov-22 23:33N 50°44' W 127°27'0 0.0
2014-Nov-22 22:33N 50°44' W 127°27'0 0.0
2014-Nov-22 21:26N 50°44' W 127°27'0 0.0
2014-Nov-22 20:15N 50°44' W 127°27'0 0.0
2014-Nov-22 19:33N 50°44' W 127°27'0 0.0
2014-Nov-22 18:33N 50°44' W 127°27'0 0.0
2014-Nov-22 17:33N 50°44' W 127°27'1 0.5
2014-Nov-22 16:33N 50°44' W 127°28'1212.5
2014-Nov-22 15:34N 50°54' W 127°39'1414.3
2014-Nov-22 14:34N 51°07' W 127°49'1914.3
2014-Nov-22 13:16N 51°25' W 127°51'19310.7
2014-Nov-21 19:16N 54°15' W 130°21'2 3.4
2014-Nov-21 18:34N 54°18' W 130°21'0 0.0
2014-Nov-21 17:33N 54°18' W 130°21'2 0.1
2014-Nov-20 18:14N 54°16' W 130°22'2 2.4
2014-Nov-20 17:33N 54°18' W 130°21'0 0.0
2014-Nov-20 16:33N 54°18' W 130°21'0 0.0
2014-Nov-20 15:33N 54°18' W 130°21'0 0.0
2014-Nov-20 14:33N 54°18' W 130°21'0 0.0
2014-Nov-20 13:33N 54°18' W 130°21'0 0.0
2014-Nov-20 12:33N 54°18' W 130°21'0 0.0
2014-Nov-20 11:33N 54°18' W 130°21'0 0.0
2014-Nov-20 10:33N 54°18' W 130°21'0 0.0
2014-Nov-20 09:33N 54°18' W 130°21'0 0.0
2014-Nov-20 08:33N 54°18' W 130°21'0 0.0
2014-Nov-20 07:33N 54°18' W 130°21'0 0.0
2014-Nov-20 06:33N 54°18' W 130°21'0 0.0
2014-Nov-20 05:33N 54°18' W 130°21'0 0.0
2014-Nov-20 04:33N 54°18' W 130°21'0 0.0
2014-Nov-20 03:33N 54°18' W 130°21'0 0.0
2014-Nov-20 02:33N 54°18' W 130°21'0 0.0
2014-Nov-20 01:33N 54°18' W 130°21'0 0.0
2014-Nov-20 00:34N 54°18' W 130°21'0 0.0
2014-Nov-19 23:33N 54°18' W 130°21'0 0.0
2014-Nov-19 22:33N 54°18' W 130°21'0 0.0
2014-Nov-19 21:33N 54°18' W 130°21'0 0.0
2014-Nov-19 20:33N 54°18' W 130°21'0 0.0
2014-Nov-19 19:33N 54°18' W 130°21'0 0.0
2014-Nov-19 18:33N 54°18' W 130°21'0 0.0
2014-Nov-19 17:33N 54°18' W 130°21'0 0.0
2014-Nov-19 16:33N 54°18' W 130°21'0 0.0
2014-Nov-19 02:33N 54°18' W 130°21'0 0.0
2014-Nov-19 01:33N 54°18' W 130°21'1 1.3
2014-Nov-19 00:33N 54°17' W 130°22'  
Track history (hours):
 
Tides and Currents Weather Stations Pressure Air Temp Water Temp Dewpoint Dewpoint Depression Visibility Wind Speed Wind Dir Waves Ship Positions

Northern Expedition

Last reported at 2014-Nov-27 09:33 UTC. Time now 2014-Nov-29 08:37 UTC.
Position N 54°18' W 130°21'.

Length 151 m; draft 5 m.

Type: Ship. MMSI: 316014054.

Date/timePositionNaut miles runAvg speedWind from/ knotsBaromVisibWave heightAir tempDewpointWater temp
2014-Nov-27 09:33N 54°18' W 130°21'0 0.0
2014-Nov-27 08:33N 54°18' W 130°21'0 0.0
2014-Nov-27 07:33N 54°18' W 130°21'0 0.0
2014-Nov-27 06:33N 54°18' W 130°21'0 0.0
2014-Nov-27 00:18N 54°18' W 130°21'0 0.0
2014-Nov-26 23:34N 54°18' W 130°21'0 0.0
2014-Nov-26 22:33N 54°18' W 130°21'0 0.0
2014-Nov-26 03:07N 54°18' W 130°21'0 0.0
2014-Nov-26 02:33N 54°18' W 130°21'0 0.0
2014-Nov-26 01:33N 54°18' W 130°21'0 0.2
2014-Nov-26 00:33N 54°18' W 130°21'2 0.0
2014-Nov-24 06:12N 54°16' W 130°22'2 2.8
2014-Nov-24 05:33N 54°18' W 130°21'0 0.0
2014-Nov-24 04:34N 54°18' W 130°21'0 0.0
2014-Nov-24 03:33N 54°18' W 130°21'0 0.0
2014-Nov-24 02:34N 54°18' W 130°21'0 0.0
2014-Nov-24 01:33N 54°18' W 130°21'0 0.0
2014-Nov-24 00:33N 54°18' W 130°21'0 0.0
2014-Nov-23 23:33N 54°18' W 130°21'19010.4
2014-Nov-23 05:15N 51°31' W 127°52'1014.9
2014-Nov-23 04:33N 51°21' W 127°52'1716.9
2014-Nov-23 03:32N 51°04' W 127°47'1716.9
2014-Nov-23 02:34N 50°51' W 127°31'8 7.0
2014-Nov-23 01:27N 50°44' W 127°27'0 0.0
2014-Nov-23 00:33N 50°44' W 127°27'0 0.0
2014-Nov-22 23:33N 50°44' W 127°27'0 0.0
2014-Nov-22 22:33N 50°44' W 127°27'0 0.0
2014-Nov-22 21:26N 50°44' W 127°27'0 0.0
2014-Nov-22 20:15N 50°44' W 127°27'0 0.0
2014-Nov-22 19:33N 50°44' W 127°27'0 0.0
2014-Nov-22 18:33N 50°44' W 127°27'0 0.0
2014-Nov-22 17:33N 50°44' W 127°27'1 0.5
2014-Nov-22 16:33N 50°44' W 127°28'1212.5
2014-Nov-22 15:34N 50°54' W 127°39'1414.3
2014-Nov-22 14:34N 51°07' W 127°49'1914.3
2014-Nov-22 13:16N 51°25' W 127°51'19310.7
2014-Nov-21 19:16N 54°15' W 130°21'2 3.4
2014-Nov-21 18:34N 54°18' W 130°21'0 0.0
2014-Nov-21 17:33N 54°18' W 130°21'2 0.1
2014-Nov-20 18:14N 54°16' W 130°22'2 2.4
2014-Nov-20 17:33N 54°18' W 130°21'0 0.0
2014-Nov-20 16:33N 54°18' W 130°21'0 0.0
2014-Nov-20 15:33N 54°18' W 130°21'0 0.0
2014-Nov-20 14:33N 54°18' W 130°21'0 0.0
2014-Nov-20 13:33N 54°18' W 130°21'0 0.0
2014-Nov-20 12:33N 54°18' W 130°21'0 0.0
2014-Nov-20 11:33N 54°18' W 130°21'0 0.0
2014-Nov-20 10:33N 54°18' W 130°21'0 0.0
2014-Nov-20 09:33N 54°18' W 130°21'0 0.0
2014-Nov-20 08:33N 54°18' W 130°21'0 0.0
2014-Nov-20 07:33N 54°18' W 130°21'0 0.0
2014-Nov-20 06:33N 54°18' W 130°21'0 0.0
2014-Nov-20 05:33N 54°18' W 130°21'0 0.0
2014-Nov-20 04:33N 54°18' W 130°21'0 0.0
2014-Nov-20 03:33N 54°18' W 130°21'0 0.0
2014-Nov-20 02:33N 54°18' W 130°21'0 0.0
2014-Nov-20 01:33N 54°18' W 130°21'0 0.0
2014-Nov-20 00:34N 54°18' W 130°21'0 0.0
2014-Nov-19 23:33N 54°18' W 130°21'0 0.0
2014-Nov-19 22:33N 54°18' W 130°21'0 0.0
2014-Nov-19 21:33N 54°18' W 130°21'0 0.0
2014-Nov-19 20:33N 54°18' W 130°21'0 0.0
2014-Nov-19 19:33N 54°18' W 130°21'0 0.0
2014-Nov-19 18:33N 54°18' W 130°21'0 0.0
2014-Nov-19 17:33N 54°18' W 130°21'0 0.0
2014-Nov-19 16:33N 54°18' W 130°21'0 0.0
2014-Nov-19 02:33N 54°18' W 130°21'0 0.0
2014-Nov-19 01:33N 54°18' W 130°21'1 1.3
2014-Nov-19 00:33N 54°17' W 130°22'  

Dump ship's entire track history